createdAt,value
2019-02-15T00:04:35.061Z,53.09
2019-02-15T00:10:40.972Z,53.19
2019-02-15T00:16:47.217Z,52.50
2019-02-15T00:22:52.928Z,51.47
2019-02-15T00:28:58.731Z,50.74
2019-02-15T00:35:04.951Z,50.07
2019-02-15T00:41:10.704Z,49.90
2019-02-15T00:47:27.091Z,49.33
2019-02-15T00:53:51.725Z,48.64
2019-02-15T01:00:16.282Z,47.46
2019-02-15T01:06:46.737Z,47.52
2019-02-15T01:12:57.187Z,46.40
2019-02-15T01:19:02.951Z,46.53
2019-02-15T01:25:08.760Z,46.79
2019-02-15T01:31:42.396Z,46.86
2019-02-15T01:38:05.404Z,46.97
2019-02-15T01:44:19.056Z,46.92
2019-02-15T01:50:26.308Z,46.47
2019-02-15T01:56:32.413Z,46.52
2019-02-15T02:02:38.410Z,46.80
2019-02-15T02:08:44.343Z,46.77
2019-02-15T02:14:50.232Z,47.15
2019-02-15T02:20:56.085Z,47.24
2019-02-15T02:27:02.026Z,47.36
2019-02-15T02:33:07.854Z,47.42
2019-02-15T02:39:13.911Z,47.64
2019-02-15T02:45:19.718Z,48.06
2019-02-15T02:51:25.540Z,48.50
2019-02-15T02:57:31.267Z,48.54
2019-02-15T03:03:37.398Z,48.41
2019-02-15T03:09:43.326Z,48.27
2019-02-15T03:15:49.264Z,48.26
2019-02-15T03:21:55.444Z,48.48
2019-02-15T03:28:01.268Z,48.88
2019-02-15T03:34:07.015Z,49.29
2019-02-15T03:40:31.913Z,49.87
2019-02-15T03:46:37.691Z,50.20
2019-02-15T03:52:43.416Z,50.31
2019-02-15T03:58:49.112Z,50.82
2019-02-15T04:04:54.850Z,50.67
2019-02-15T04:11:00.652Z,50.63
2019-02-15T04:17:06.362Z,51.24
2019-02-15T04:23:12.076Z,51.43
2019-02-15T04:29:18.233Z,51.73
2019-02-15T04:35:24.296Z,51.95
2019-02-15T04:41:29.991Z,52.18
2019-02-15T04:47:35.657Z,52.33
2019-02-15T04:53:41.673Z,52.61
2019-02-15T04:59:47.404Z,52.92
2019-02-15T05:05:53.145Z,53.11
2019-02-15T05:11:59.318Z,53.45
2019-02-15T05:18:05.225Z,53.42
2019-02-15T05:24:11.032Z,53.79
2019-02-15T05:30:16.826Z,53.84
2019-02-15T05:36:22.546Z,54.02
2019-02-15T05:42:29.198Z,53.94
2019-02-15T05:48:35.415Z,53.92
2019-02-15T05:54:41.181Z,53.95
2019-02-15T06:00:55.088Z,54.51
2019-02-15T06:07:01.105Z,55.01
2019-02-15T06:13:06.971Z,55.51
2019-02-15T06:19:12.663Z,55.83
2019-02-15T06:25:18.449Z,56.27
2019-02-15T06:31:24.174Z,56.57
2019-02-15T06:37:29.865Z,56.78
2019-02-15T06:43:35.562Z,57.05
2019-02-15T06:49:41.368Z,57.20
2019-02-15T06:55:47.077Z,57.41
2019-02-15T07:02:04.501Z,57.67
2019-02-15T07:08:10.197Z,58.13
2019-02-15T07:14:15.933Z,58.52
2019-02-15T07:20:21.671Z,58.77
2019-02-15T07:26:27.408Z,59.02
2019-02-15T07:32:33.290Z,58.91
2019-02-15T07:38:38.964Z,58.81
2019-02-15T07:44:44.845Z,58.79
2019-02-15T07:50:50.590Z,58.87
2019-02-15T07:56:56.678Z,58.98
2019-02-15T08:03:02.452Z,59.01
2019-02-15T08:09:11.822Z,58.93
2019-02-15T08:15:17.663Z,58.69
2019-02-15T08:21:23.667Z,58.06
2019-02-15T08:27:31.364Z,57.12
2019-02-15T08:33:37.047Z,56.42
2019-02-15T08:39:42.782Z,55.64
2019-02-15T08:45:48.561Z,54.96
2019-02-15T08:51:54.511Z,53.85
2019-02-15T08:58:00.224Z,53.48
2019-02-15T09:04:06.136Z,52.70
2019-02-15T09:10:13.712Z,51.74
2019-02-15T09:16:19.673Z,50.66
2019-02-15T09:22:25.410Z,50.21
2019-02-15T09:28:53.602Z,48.99
2019-02-15T09:34:59.449Z,48.69
2019-02-15T09:41:05.623Z,47.31
2019-02-15T09:47:11.625Z,46.95
2019-02-15T09:53:17.391Z,46.43
2019-02-15T09:59:23.410Z,45.22
2019-02-15T10:05:29.263Z,45.20
2019-02-15T10:11:35.071Z,44.69
2019-02-15T10:17:40.873Z,44.25
2019-02-15T10:23:46.698Z,44.33
2019-02-15T10:29:52.764Z,43.96
2019-02-15T10:35:58.606Z,43.53
2019-02-15T10:42:04.536Z,43.01
2019-02-15T10:48:10.828Z,42.95
2019-02-15T10:54:16.696Z,42.67
2019-02-15T11:00:22.608Z,42.16
2019-02-15T11:06:28.557Z,41.76
2019-02-15T11:12:34.319Z,41.39
2019-02-15T11:18:40.443Z,41.42
2019-02-15T11:24:46.473Z,41.22
2019-02-15T11:30:52.659Z,41.28
2019-02-15T11:36:58.428Z,40.82
2019-02-15T11:43:04.109Z,40.09
2019-02-15T11:49:12.138Z,39.94
2019-02-15T11:55:18.123Z,39.68
2019-02-15T12:01:24.160Z,39.85
2019-02-15T12:07:30.063Z,39.86
2019-02-15T12:13:36.302Z,39.88
2019-02-15T12:19:42.221Z,39.56
2019-02-15T12:25:48.143Z,39.85
2019-02-15T12:31:53.968Z,39.89
2019-02-15T12:37:59.664Z,38.44
2019-02-15T12:44:05.648Z,38.90
2019-02-15T12:50:14.368Z,38.20
2019-02-15T12:56:20.120Z,38.17
2019-02-15T13:02:25.990Z,38.16
2019-02-15T13:08:31.976Z,38.30
2019-02-15T13:14:38.265Z,37.88
2019-02-15T13:20:44.246Z,37.71
2019-02-15T13:26:50.145Z,36.88
2019-02-15T13:32:56.555Z,37.00
2019-02-15T13:39:02.289Z,36.63
2019-02-15T13:45:10.626Z,36.61
2019-02-15T13:51:16.527Z,36.45
2019-02-15T13:57:22.299Z,36.35
2019-02-15T14:03:28.188Z,35.73
2019-02-15T14:09:34.056Z,35.85
2019-02-15T14:15:40.202Z,35.30
2019-02-15T14:21:45.957Z,34.72
2019-02-15T14:27:52.272Z,34.95
2019-02-15T14:33:58.077Z,34.32
2019-02-15T14:40:03.902Z,34.64
2019-02-15T14:46:09.672Z,35.23
2019-02-15T14:52:21.209Z,34.87
2019-02-15T14:58:26.967Z,34.94
2019-02-15T15:04:32.913Z,35.04
2019-02-15T15:10:38.789Z,34.50
2019-02-15T15:16:44.861Z,34.71
2019-02-15T15:22:50.896Z,35.06
2019-02-15T15:28:57.299Z,35.48
2019-02-15T15:35:03.395Z,35.79
2019-02-15T15:41:10.877Z,35.77
2019-02-15T15:47:16.989Z,35.52
2019-02-15T15:53:22.860Z,35.18
2019-02-15T15:59:28.628Z,35.37
2019-02-15T16:05:34.454Z,35.34
2019-02-15T16:11:40.382Z,35.67
2019-02-15T16:17:46.465Z,36.07
2019-02-15T16:23:52.374Z,36.68
2019-02-15T16:29:58.155Z,37.03
2019-02-15T16:36:04.071Z,37.62
2019-02-15T16:42:10.011Z,37.62
2019-02-15T16:48:16.139Z,37.90
2019-02-15T16:54:21.857Z,38.09
2019-02-15T17:00:27.776Z,38.49
2019-02-15T17:06:33.530Z,39.01
2019-02-15T17:12:39.549Z,39.33
2019-02-15T17:18:51.343Z,39.18
2019-02-15T17:24:53.041Z,39.03
2019-02-15T17:30:59.229Z,38.93
2019-02-15T17:37:06.551Z,38.99
2019-02-15T17:43:12.400Z,39.11
2019-02-15T17:49:18.582Z,39.25
2019-02-15T17:55:24.407Z,39.04
2019-02-15T18:07:43.016Z,39.13
2019-02-15T18:13:48.830Z,39.36
2019-02-15T18:19:54.854Z,39.40
2019-02-15T18:26:00.810Z,39.39
2019-02-15T18:32:07.008Z,39.51
2019-02-15T18:38:14.668Z,39.46
2019-02-15T18:44:20.428Z,39.48
2019-02-15T18:50:26.276Z,39.41
2019-02-15T18:56:32.368Z,37.47
2019-02-15T19:02:38.266Z,38.83
2019-02-15T19:08:44.041Z,38.99
2019-02-15T19:14:49.918Z,38.55
2019-02-15T19:20:55.875Z,38.70
2019-02-15T19:27:01.661Z,38.83
2019-02-15T19:33:07.386Z,39.08
2019-02-15T19:39:13.316Z,39.08
2019-02-15T19:45:19.389Z,39.34
2019-02-15T19:51:25.205Z,39.38
2019-02-15T19:57:31.060Z,38.94
2019-02-15T20:03:36.816Z,38.68
2019-02-15T20:09:43.088Z,38.36
2019-02-15T20:15:49.135Z,38.41
2019-02-15T20:21:55.081Z,38.43
2019-02-15T20:28:01.039Z,38.41
2019-02-15T20:34:07.241Z,38.53
2019-02-15T20:40:13.405Z,38.85
2019-02-15T20:46:19.086Z,38.90
2019-02-15T20:52:24.885Z,39.01
2019-02-15T20:58:31.222Z,39.23
2019-02-15T21:04:37.409Z,39.79
2019-02-15T21:10:43.174Z,39.92
2019-02-15T21:16:49.075Z,40.23
2019-02-15T21:22:55.010Z,40.49
2019-02-15T21:29:01.249Z,40.84
2019-02-15T21:35:07.381Z,40.99
2019-02-15T21:41:13.469Z,41.24
2019-02-15T21:47:19.403Z,41.43
2019-02-15T21:53:25.249Z,41.58
2019-02-15T21:59:31.624Z,41.62
2019-02-15T22:05:37.353Z,41.89
2019-02-15T22:11:43.341Z,42.10
2019-02-15T22:17:49.287Z,42.21
2019-02-15T22:23:55.326Z,42.42
2019-02-15T22:30:01.262Z,42.78
2019-02-15T22:36:07.509Z,42.98
2019-02-15T22:42:13.499Z,43.13
2019-02-15T22:48:19.336Z,43.33
2019-02-15T22:54:25.314Z,43.71
2019-02-15T23:00:54.345Z,43.90
2019-02-15T23:07:00.129Z,44.12
2019-02-15T23:13:06.388Z,44.05
2019-02-15T23:19:12.411Z,44.32
2019-02-15T23:25:18.256Z,44.52
2019-02-15T23:31:24.157Z,44.66
2019-02-15T23:37:30.011Z,44.83
2019-02-15T23:43:35.828Z,45.00
2019-02-15T23:49:41.641Z,45.39
2019-02-15T23:55:47.596Z,45.71
